»·PEaware :: N6182G L52-KBFL

N6182G :: L52-KBFL

FLIGHT INFORMATION

Flight Status: Arrived
Operator: Privately registered:
United States
More flights under this callsign
Pilot: Bernard S. (25498)
Aircraft: CESSNA 182 SKYLANE
(C182)
More flights by this aircraft type
Origin: L52 Oceano Co
United States
Destination: KBFL Meadows
United States
More flights between these airports :: More routes between these airports
Route: FLW EHF
File this flight plan on PilotEdge
Remarks:
Altitude:
(Current/Filed)
9,500ft
Speed:
(Current/Filed)
120kts
Departed: 29-Sep-19 03:50 PM
Arrived: 29-Sep-19 04:33 PM
Distance/Time
Traveled:
79nm/0:43
Distance/Time
To Go:
Arrived

Flight Plot

Page will automatically refresh every two minutes.


Map Options




Map Legend


Flown Route
Filed Route
Departure Airport
Arrival Airport
Navaid (VOR, NDB)
Fix

Horizontal Profiles

Position Reports

Time Latitude Longitude Heading Altitude Ground
Speed
29-Sep-19 15:48 35.096433 -120.146385 88 9486ft 150kts
29-Sep-19 15:49 35.095782 -120.094876 88 9487ft 152kts
29-Sep-19 15:50 35.095155 -120.043062 88 9479ft 153kts
29-Sep-19 15:51 35.094499 -119.991592 88 9475ft 151kts
29-Sep-19 15:52 35.093782 -119.938335 89 9465ft 164kts
29-Sep-19 15:53 35.092751 -119.884879 89 9450ft 152kts
29-Sep-19 15:54 35.091834 -119.833987 89 9471ft 148kts
29-Sep-19 15:55 35.090842 -119.783343 90 9474ft 150kts
29-Sep-19 15:56 35.108644 -119.743568 31 9476ft 137kts
29-Sep-19 15:57 35.140568 -119.718795 21 9475ft 134kts
29-Sep-19 15:58 35.172148 -119.694464 47 9486ft 139kts
29-Sep-19 15:59 35.193642 -119.654321 53 9490ft 141kts
29-Sep-19 16:00 35.214999 -119.614103 53 9485ft 141kts
29-Sep-19 16:01 35.236550 -119.574013 53 9486ft 141kts
29-Sep-19 16:02 35.258048 -119.533841 53 9193ft 133kts
29-Sep-19 16:03 35.276254 -119.499632 53 8549ft 117kts
29-Sep-19 16:04 35.293752 -119.466775 54 7989ft 115kts
29-Sep-19 16:05 35.310959 -119.434828 52 7365ft 105kts
29-Sep-19 16:06 35.325791 -119.406861 53 6769ft 97kts
29-Sep-19 16:07 35.339900 -119.381068 53 6149ft 83kts
29-Sep-19 16:08 35.352908 -119.356957 53 5420ft 93kts
29-Sep-19 16:09 35.368962 -119.329267 53 4430ft 105kts
29-Sep-19 16:10 35.386523 -119.300489 53 3427ft 104kts
29-Sep-19 16:11 35.404473 -119.271065 53 2434ft 111kts
29-Sep-19 16:12 35.425303 -119.236374 53 1515ft 132kts
29-Sep-19 16:13 35.444045 -119.204772 53 1494ft 104kts
29-Sep-19 16:14 35.454008 -119.172877 96 1486ft 115kts
29-Sep-19 16:15 35.448959 -119.135999 96 1746ft 111kts
29-Sep-19 16:16 35.442431 -119.099006 111 1481ft 106kts
29-Sep-19 16:17 35.423194 -119.073222 141 1481ft 106kts
29-Sep-19 16:18 35.400741 -119.056654 164 1500ft 84kts
29-Sep-19 16:19 35.376634 -119.049449 159 1653ft 89kts
29-Sep-19 16:20 35.383196 -119.028002 39 1435ft 75kts
29-Sep-19 16:21 35.400526 -119.021401 330 1227ft 69kts
29-Sep-19 16:22 35.407530 -119.039645 248 1100ft 68kts
29-Sep-19 16:23 35.391844 -119.058597 233 1204ft 99kts
29-Sep-19 16:24 35.369700 -119.069228 149 1690ft 96kts
29-Sep-19 16:25 35.348347 -119.047954 138 1594ft 98kts
29-Sep-19 16:26 35.328324 -119.024935 140 1395ft 99kts
29-Sep-19 16:27 35.331951 -119.007539 5 1186ft 89kts
29-Sep-19 16:28 35.355918 -119.006201 359 1486ft 75kts
29-Sep-19 16:29 35.379623 -119.009324 349 1394ft 84kts
29-Sep-19 16:30 35.399537 -119.018460 319 1250ft 77kts
29-Sep-19 16:31 35.414335 -119.036461 317 918ft 72kts
29-Sep-19 16:32 35.427442 -119.051996 325 510ft 36kts
29-Sep-19 16:33 35.431012 -119.055827 10 510ft 4kts
29-Sep-19 16:34 35.431157 -119.055768 27 510ft 0kts
29-Sep-19 16:35 35.431161 -119.055765 27 510ft 0kts
29-Sep-19 16:36 35.431165 -119.055763 27 510ft 0kts
29-Sep-19 16:37 35.431170 -119.055760 27 510ft 0kts
29-Sep-19 16:38 35.431730 -119.055124 43 510ft 0kts
29-Sep-19 16:39 35.431732 -119.055122 43 510ft 0kts
29-Sep-19 16:40 35.431733 -119.055120 43 510ft 0kts

Navigation Log

Ident Type
Flight plan parsing failed, navigation log unavailable